Time;durP1;ratioP1;P1;durP2;ratioP2;P2;SDS_P1;SDS_P2;PMS_P1;PMS_P2;Temp;Humidity;BMP_temperature;BMP_pressure;BME280_temperature;BME280_humidity;BME280_pressure;Samples;Min_cycle;Max_cycle;Signal;HPM_P1;HPM_P2
2022/02/27 00:00:33;;;;;;;16.33;5.75;;;;;;;5.25;56.13;103227.91;4918687;28;123110;-66
2022/02/27 00:03:02;;;;;;;13.98;5.15;;;;;;;5.23;56.49;103219.09;4952071;28;114544;-66
2022/02/27 00:05:30;;;;;;;17.00;4.80;;;;;;;5.24;56.38;103215.59;4952591;28;113725;-66
2022/02/27 00:07:57;;;;;;;12.70;4.70;;;;;;;5.25;56.76;103227.00;4918390;28;123241;-65
2022/02/27 00:10:24;;;;;;;11.52;4.32;;;;;;;5.25;56.57;103227.91;4929903;28;123767;-66
2022/02/27 00:12:52;;;;;;;20.15;4.90;;;;;;;5.25;56.26;103235.78;4949781;28;114610;-66
2022/02/27 00:15:19;;;;;;;14.30;4.90;;;;;;;5.25;56.45;103233.16;4932078;28;114317;-66
2022/02/27 00:17:46;;;;;;;14.40;4.78;;;;;;;5.25;56.52;103225.28;4918213;28;123374;-66
2022/02/27 00:20:14;;;;;;;13.20;4.93;;;;;;;5.26;56.31;103234.91;4948625;28;125601;-66
2022/02/27 00:22:41;;;;;;;16.80;4.82;;;;;;;5.26;56.08;103227.03;4933991;28;113388;-66
2022/02/27 00:25:09;;;;;;;15.52;4.38;;;;;;;5.28;56.29;103231.44;4948674;28;115633;-66
2022/02/27 00:27:38;;;;;;;15.55;5.00;;;;;;;5.24;56.24;103231.38;4949654;28;124122;-66
2022/02/27 00:30:07;;;;;;;14.63;5.20;;;;;;;5.25;56.24;103225.28;4930703;28;123837;-67
2022/02/27 00:32:35;;;;;;;12.60;4.18;;;;;;;5.24;56.16;103236.63;4949618;28;114341;-66
2022/02/27 00:35:04;;;;;;;11.90;4.80;;;;;;;5.21;56.05;103226.06;4934821;28;114141;-66
2022/02/27 00:37:32;;;;;;;13.75;4.63;;;;;;;5.19;56.53;103235.66;4934064;28;123701;-66
2022/02/27 00:40:01;;;;;;;14.75;4.30;;;;;;;5.17;56.09;103234.75;4949402;28;122932;-67
2022/02/27 00:42:28;;;;;;;13.75;4.70;;;;;;;5.15;56.34;103236.47;4949575;28;114337;-66
2022/02/27 00:44:55;;;;;;;12.88;4.65;;;;;;;5.13;56.00;103238.19;4934226;28;113688;-66
2022/02/27 00:47:22;;;;;;;16.50;5.07;;;;;;;5.11;56.21;103239.91;4931672;28;124213;-66
2022/02/27 00:49:50;;;;;;;13.80;4.93;;;;;;;5.09;56.05;103235.50;4933846;28;123098;-66
2022/02/27 00:52:22;;;;;;;12.60;4.82;;;;;;;5.08;56.23;103245.09;4950354;28;113111;-66
2022/02/27 00:54:50;;;;;;;15.48;4.72;;;;;;;5.05;56.02;103234.56;4934992;28;112990;-67
2022/02/27 00:57:18;;;;;;;13.48;4.82;;;;;;;5.01;56.13;103237.97;4947999;28;124073;-66
2022/02/27 00:59:45;;;;;;;13.43;5.18;;;;;;;4.97;55.93;103231.81;4931098;28;123848;-66
2022/02/27 01:02:14;;;;;;;16.35;4.97;;;;;;;4.95;56.02;103237.88;4933320;28;113493;-66
2022/02/27 01:04:41;;;;;;;12.73;5.20;;;;;;;4.93;55.90;103235.22;4934271;28;113154;-66
2022/02/27 01:07:09;;;;;;;13.68;4.93;;;;;;;4.89;56.21;103233.41;4931296;28;124887;-66
2022/02/27 01:09:36;;;;;;;15.35;5.38;;;;;;;4.86;56.30;103234.25;4917433;28;122735;-66
2022/02/27 01:12:04;;;;;;;12.60;5.05;;;;;;;4.84;56.14;103241.22;4948250;28;114826;-66
2022/02/27 01:14:32;;;;;;;12.98;4.75;;;;;;;4.82;56.23;103221.94;4949880;28;114149;-66
2022/02/27 01:17:02;;;;;;;12.50;4.97;;;;;;;4.82;56.33;103221.94;4933565;28;123089;-66
2022/02/27 01:19:29;;;;;;;12.00;4.80;;;;;;;4.79;56.31;103221.88;4948118;28;123938;-66
2022/02/27 01:21:57;;;;;;;15.02;5.07;;;;;;;4.76;56.22;103219.19;4969922;28;114288;-66
2022/02/27 01:24:24;;;;;;;13.60;4.50;;;;;;;4.74;56.33;103223.53;4972853;28;114058;-66
2022/02/27 01:26:51;;;;;;;16.00;4.32;;;;;;;4.70;56.03;103216.47;4972955;28;122972;-66
2022/02/27 01:29:18;;;;;;;12.90;4.85;;;;;;;4.64;56.37;103227.72;4956348;28;123546;-66
2022/02/27 01:31:48;;;;;;;13.43;4.68;;;;;;;4.61;56.33;103222.41;4970779;28;114520;-66
2022/02/27 01:34:15;;;;;;;11.35;4.80;;;;;;;4.58;56.03;103218.88;4956730;28;113228;-66
2022/02/27 01:36:43;;;;;;;13.93;4.55;;;;;;;4.55;56.35;103221.44;4955597;28;122885;-66
2022/02/27 01:39:12;;;;;;;15.20;4.65;;;;;;;4.53;56.14;103217.91;4956122;28;122737;-67
2022/02/27 01:41:39;;;;;;;13.95;4.90;;;;;;;4.51;56.42;103220.50;4971543;28;114389;-66
2022/02/27 01:44:08;;;;;;;14.32;4.85;;;;;;;4.46;55.93;103217.78;4974036;28;114226;-66
2022/02/27 01:46:57;;;;;;;11.68;4.40;;;;;;;4.43;56.49;103212.47;4971989;28;123175;-66
2022/02/27 01:49:24;;;;;;;13.27;4.90;;;;;;;4.42;56.28;103210.69;4970676;28;124377;-67
2022/02/27 01:51:52;;;;;;;11.48;4.55;;;;;;;4.38;56.32;103214.13;4969808;28;114567;-67
2022/02/27 01:54:20;;;;;;;17.17;4.68;;;;;;;4.38;56.57;103214.13;4956325;28;113211;-66
2022/02/27 01:56:47;;;;;;;12.40;4.00;;;;;;;4.35;56.46;103211.47;4955651;28;122996;-66
2022/02/27 01:59:14;;;;;;;12.52;3.95;;;;;;;4.34;56.46;103217.56;4971915;28;122753;-66
2022/02/27 02:01:42;;;;;;;13.10;4.50;;;;;;;4.33;56.50;103210.53;4955397;28;113148;-66
2022/02/27 02:04:10;;;;;;;10.95;4.10;;;;;;;4.34;56.61;103217.56;4972860;28;114005;-66
2022/02/27 02:06:40;;;;;;;13.68;4.75;;;;;;;4.33;56.39;103213.16;4954161;28;124194;-67
2022/02/27 02:09:08;;;;;;;13.35;4.70;;;;;;;4.33;56.60;103214.88;4971790;28;123309;-66
2022/02/27 02:11:39;;;;;;;10.82;3.90;;;;;;;4.33;56.52;103207.91;4971458;28;114427;-66
2022/02/27 02:14:07;;;;;;;12.02;4.32;;;;;;;4.32;56.65;103208.78;4955584;28;114298;-66
2022/02/27 02:16:45;;;;;;;13.25;4.50;;;;;;;4.32;56.62;103214.00;4939254;28;123160;-67
2022/02/27 02:19:14;;;;;;;11.38;4.03;;;;;;;4.32;56.62;103214.00;4971287;28;124726;-66
2022/02/27 02:21:44;;;;;;;15.00;4.32;;;;;;;4.32;56.56;103210.50;4955128;28;113532;-66
2022/02/27 02:24:15;;;;;;;15.43;4.60;;;;;;;4.33;56.66;103205.28;4971629;28;113762;-66
2022/02/27 02:26:44;;;;;;;11.95;4.40;;;;;;;4.31;56.41;103212.22;4971564;28;123084;-66
2022/02/27 02:29:14;;;;;;;11.48;4.35;;;;;;;4.29;56.56;103204.34;4955792;28;123693;-67
2022/02/27 02:31:42;;;;;;;10.48;4.40;;;;;;;4.28;56.56;103199.94;4971289;28;113404;-66
2022/02/27 02:34:12;;;;;;;12.18;4.28;;;;;;;4.26;56.32;103208.66;4938406;28;113452;-66
2022/02/27 02:36:42;;;;;;;12.52;3.80;;;;;;;4.24;56.38;103206.00;4954358;28;123833;-66
2022/02/27 02:39:13;;;;;;;10.20;4.05;;;;;;;4.20;56.40;103204.19;4971011;28;123558;-66
2022/02/27 02:41:41;;;;;;;14.50;3.97;;;;;;;4.17;56.49;103203.22;4970988;28;113449;-66
2022/02/27 02:44:14;;;;;;;11.35;3.83;;;;;;;4.14;56.39;103197.91;4939698;28;113121;-66
2022/02/27 02:46:43;;;;;;;11.10;4.20;;;;;;;4.11;56.38;103198.75;4969920;28;124657;-66
2022/02/27 02:49:13;;;;;;;8.90;3.63;;;;;;;4.09;56.50;103201.34;4971108;28;123027;-66
2022/02/27 02:51:44;;;;;;;11.15;4.82;;;;;;;4.08;56.27;103196.94;4970972;28;113300;-67
2022/02/27 02:54:11;;;;;;;12.77;4.35;;;;;;;4.06;56.53;103196.00;4971752;28;113194;-66
2022/02/27 02:56:40;;;;;;;11.02;4.22;;;;;;;4.04;56.67;103192.47;4970650;28;123931;-66
2022/02/27 02:59:08;;;;;;;11.02;4.10;;;;;;;4.01;56.34;103191.53;4955093;28;122663;-66
2022/02/27 03:01:36;;;;;;;16.25;4.30;;;;;;;3.99;56.57;103194.13;4953686;28;114731;-67
2022/02/27 03:04:04;;;;;;;14.07;4.43;;;;;;;3.97;56.68;103185.34;4972534;28;114655;-67
2022/02/27 03:06:32;;;;;;;9.00;3.88;;;;;;;3.97;56.54;103190.59;4969622;28;123819;-66
2022/02/27 03:09:03;;;;;;;15.18;4.38;;;;;;;3.95;56.75;103187.03;4969708;28;124620;-67
2022/02/27 03:11:30;;;;;;;12.43;4.25;;;;;;;3.95;56.28;103192.28;4968998;28;114262;-67
2022/02/27 03:14:00;;;;;;;13.27;4.35;;;;;;;3.94;56.65;103184.38;4954687;28;113538;-67
2022/02/27 03:16:29;;;;;;;12.75;3.70;;;;;;;3.93;56.65;103182.63;4971806;28;125189;-66
2022/02/27 03:18:57;;;;;;;16.02;4.43;;;;;;;3.91;56.66;103179.97;4972315;28;123899;-66
2022/02/27 03:21:25;;;;;;;9.60;3.92;;;;;;;3.90;56.63;103178.22;4970372;28;114230;-66
2022/02/27 03:23:53;;;;;;;10.05;4.00;;;;;;;3.91;56.70;103177.34;4972107;28;114062;-66
2022/02/27 03:26:23;;;;;;;16.33;4.40;;;;;;;3.91;56.69;103182.59;4969871;28;123283;-66
2022/02/27 03:28:51;;;;;;;11.98;4.15;;;;;;;3.91;56.70;103179.97;4954415;28;123210;-70
2022/02/27 03:31:20;;;;;;;11.35;4.35;;;;;;;3.90;56.63;103173.88;4967747;28;114835;-71
2022/02/27 03:33:48;;;;;;;10.07;4.10;;;;;;;3.89;56.70;103173.81;4954491;28;114437;-70
2022/02/27 03:36:15;;;;;;;10.10;4.15;;;;;;;3.87;56.54;103172.91;4969017;28;124420;-70
2022/02/27 03:38:43;;;;;;;8.82;3.80;;;;;;;3.85;56.54;103159.78;4954808;28;122794;-70
2022/02/27 03:41:12;;;;;;;9.10;3.67;;;;;;;3.82;56.51;103158.81;4968983;28;114106;-70
2022/02/27 03:43:39;;;;;;;11.82;4.28;;;;;;;3.79;56.59;103153.53;4970487;28;114127;-69
2022/02/27 03:46:07;;;;;;;15.45;4.57;;;;;;;3.79;56.56;103158.78;4959434;28;123043;-70
2022/02/27 03:48:34;;;;;;;13.20;4.45;;;;;;;3.77;56.71;103160.44;4957357;28;123779;-70
2022/02/27 03:51:03;;;;;;;12.80;4.20;;;;;;;3.76;56.73;103163.94;4950938;28;97004;-70
2022/02/27 03:53:30;;;;;;;11.02;4.10;;;;;;;3.75;56.45;103156.91;4951250;28;115799;-70
2022/02/27 03:55:58;;;;;;;9.68;4.30;;;;;;;3.73;56.54;103156.00;4949358;28;124469;-70
2022/02/27 03:58:25;;;;;;;9.30;3.85;;;;;;;3.70;56.85;103149.84;4950416;28;122696;-70
2022/02/27 04:00:52;;;;;;;9.27;3.47;;;;;;;3.70;56.41;103162.09;4950535;28;113419;-69
2022/02/27 04:03:19;;;;;;;11.85;4.30;;;;;;;3.67;56.59;103155.06;4950785;28;112749;-70
2022/02/27 04:05:47;;;;;;;14.32;4.53;;;;;;;3.66;56.62;103157.63;4949427;28;124583;-70
2022/02/27 04:08:14;;;;;;;13.60;4.22;;;;;;;3.65;56.77;103156.72;4951056;28;122944;-70
2022/02/27 04:10:41;;;;;;;10.57;3.50;;;;;;;3.63;56.80;103158.44;4951139;28;114659;-70
2022/02/27 04:13:09;;;;;;;12.85;3.60;;;;;;;3.61;56.84;103160.13;4950683;28;113997;-70
2022/02/27 04:15:36;;;;;;;13.43;4.03;;;;;;;3.61;56.61;103154.03;4948343;28;124320;-67
2022/02/27 04:18:03;;;;;;;13.20;4.25;;;;;;;3.59;56.38;103153.97;4934032;28;122792;-69
2022/02/27 04:20:30;;;;;;;10.48;4.40;;;;;;;3.59;56.82;103150.47;4949797;28;114523;-69
2022/02/27 04:22:57;;;;;;;9.82;4.05;;;;;;;3.58;56.69;103144.38;4950193;28;114231;-69
2022/02/27 04:25:25;;;;;;;8.43;3.92;;;;;;;3.59;56.84;103151.34;4951268;28;123965;-69
2022/02/27 04:27:53;;;;;;;14.43;4.50;;;;;;;3.60;56.87;103153.16;4950202;28;124838;-68
2022/02/27 04:30:20;;;;;;;12.25;3.78;;;;;;;3.61;56.83;103154.91;4932025;28;114487;-69
2022/02/27 04:32:47;;;;;;;12.35;3.92;;;;;;;3.63;56.69;103158.44;4950279;28;114595;-68
2022/02/27 04:35:15;;;;;;;10.80;3.90;;;;;;;3.65;56.87;103155.84;4948951;28;124606;-68
2022/02/27 04:37:42;;;;;;;9.82;4.15;;;;;;;3.67;56.76;103149.81;4950264;28;122710;-68
2022/02/27 04:40:10;;;;;;;8.45;3.80;;;;;;;3.67;56.98;103154.13;4948954;28;114589;-68
2022/02/27 04:42:37;;;;;;;11.02;3.97;;;;;;;3.69;56.88;103153.34;4951330;28;115126;-68
2022/02/27 04:45:09;;;;;;;10.98;3.83;;;;;;;3.70;57.00;103154.22;4949577;28;124034;-68
2022/02/27 04:47:36;;;;;;;10.93;3.90;;;;;;;3.71;57.04;103145.47;4931826;28;123057;-68
2022/02/27 04:50:04;;;;;;;12.30;4.38;;;;;;;3.75;57.15;103154.28;4933030;28;114430;-68
2022/02/27 04:52:33;;;;;;;9.27;3.28;;;;;;;3.76;57.15;103153.47;4947895;28;114065;-68
2022/02/27 04:55:02;;;;;;;8.02;3.72;;;;;;;3.79;57.17;103153.53;4917608;28;123553;-69
2022/02/27 04:57:29;;;;;;;12.27;3.90;;;;;;;3.81;56.73;103151.81;4947890;28;124103;-68
2022/02/27 04:59:56;;;;;;;10.80;3.95;;;;;;;3.83;57.09;103150.13;4949083;28;114286;-68
2022/02/27 05:02:23;;;;;;;11.45;3.67;;;;;;;3.84;57.23;103149.25;4950060;28;112993;-68
2022/02/27 05:04:50;;;;;;;10.45;4.03;;;;;;;3.85;56.81;103148.41;4930424;28;123988;-68
2022/02/27 05:07:18;;;;;;;11.27;4.22;;;;;;;3.84;57.03;103152.78;4948059;28;123988;-69
2022/02/27 05:09:45;;;;;;;12.73;3.85;;;;;;;3.85;56.91;103148.41;4930640;28;114928;-69
2022/02/27 05:12:13;;;;;;;10.43;3.60;;;;;;;3.83;57.00;103150.13;4948943;28;114768;-68
2022/02/27 05:14:40;;;;;;;12.18;3.60;;;;;;;3.83;56.94;103139.63;4930770;28;124392;-68
2022/02/27 05:17:27;;;;;;;11.25;3.78;;;;;;;3.80;56.75;103139.56;4936126;28;124204;-68
2022/02/27 05:19:54;;;;;;;9.02;3.83;;;;;;;3.81;56.96;103136.09;4949036;28;113400;-68
2022/02/27 05:22:21;;;;;;;11.57;3.78;;;;;;;3.81;56.96;103136.97;4951361;28;116049;-67
2022/02/27 05:24:49;;;;;;;7.82;3.60;;;;;;;3.82;56.91;103137.84;4947681;28;124078;-67
2022/02/27 05:27:16;;;;;;;11.38;3.60;;;;;;;3.84;56.72;103141.38;4949535;28;122832;-68
2022/02/27 05:29:43;;;;;;;9.65;3.92;;;;;;;3.84;56.98;103138.75;4916945;28;114964;-68
2022/02/27 05:32:11;;;;;;;12.05;3.90;;;;;;;3.83;56.83;103139.63;4948173;28;115387;-67
2022/02/27 05:34:39;;;;;;;12.70;3.25;;;;;;;3.83;56.90;103142.25;4946756;28;124105;-67
2022/02/27 05:37:06;;;;;;;10.95;3.75;;;;;;;3.84;56.79;103144.00;4933230;28;122776;-67
2022/02/27 05:39:33;;;;;;;11.82;3.58;;;;;;;3.84;56.82;103141.38;4948188;28;114361;-67
2022/02/27 05:42:00;;;;;;;11.40;3.95;;;;;;;3.83;56.93;103139.63;4947958;28;114138;-67
2022/02/27 05:44:27;;;;;;;14.90;3.80;;;;;;;3.81;56.80;103136.97;4949291;28;123162;-67
2022/02/27 05:46:55;;;;;;;9.07;3.50;;;;;;;3.81;56.54;103136.09;4933091;28;122908;-67
2022/02/27 05:49:22;;;;;;;10.52;3.22;;;;;;;3.79;56.86;103143.06;4949791;28;113677;-67
2022/02/27 05:51:49;;;;;;;12.05;3.45;;;;;;;3.77;56.88;103135.16;4929898;28;114027;-68
2022/02/27 05:54:17;;;;;;;9.20;3.35;;;;;;;3.76;56.75;103137.72;4949922;28;124661;-67
2022/02/27 05:56:44;;;;;;;8.18;3.38;;;;;;;3.74;56.94;103140.31;4949428;28;122752;-68
2022/02/27 05:59:11;;;;;;;10.73;3.42;;;;;;;3.72;56.68;103141.16;4946776;28;114771;-68
2022/02/27 06:01:38;;;;;;;7.25;2.80;;;;;;;3.72;56.87;103141.16;4945888;28;113896;-68
2022/02/27 06:04:05;;;;;;;12.73;3.13;;;;;;;3.73;56.94;103148.16;4948716;28;123099;-68
2022/02/27 06:06:33;;;;;;;8.55;2.90;;;;;;;3.73;57.18;103142.91;4948752;28;124052;-68
2022/02/27 06:09:00;;;;;;;11.10;3.00;;;;;;;3.73;56.74;103143.81;4936114;28;113874;-68
2022/02/27 06:11:27;;;;;;;9.10;3.60;;;;;;;3.74;56.86;103155.16;4950800;28;113814;-68
2022/02/27 06:13:56;;;;;;;9.93;3.30;;;;;;;3.74;57.04;103152.53;4952821;28;123941;-68
2022/02/27 06:16:24;;;;;;;8.15;3.28;;;;;;;3.74;56.88;103155.16;4951633;28;122785;-68
2022/02/27 06:18:52;;;;;;;10.60;3.30;;;;;;;3.74;57.08;103158.66;4948444;28;115464;-68
2022/02/27 06:21:19;;;;;;;8.57;3.25;;;;;;;3.75;56.94;103156.91;4950997;28;114306;-67
2022/02/27 06:23:46;;;;;;;9.02;3.17;;;;;;;3.75;56.93;103162.16;4951002;28;124260;-68
2022/02/27 06:26:14;;;;;;;7.75;3.17;;;;;;;3.75;57.01;103156.91;4948601;28;123781;-68
2022/02/27 06:28:41;;;;;;;11.30;3.05;;;;;;;3.77;57.22;103165.69;4950961;28;114361;-68
2022/02/27 06:31:08;;;;;;;12.15;3.80;;;;;;;3.77;56.88;103155.22;4950695;28;114089;-68
2022/02/27 06:33:36;;;;;;;9.40;2.92;;;;;;;3.77;57.08;103168.31;4952611;28;124295;-67
2022/02/27 06:36:04;;;;;;;8.30;3.25;;;;;;;3.78;56.95;103162.22;4952892;28;123102;-68
2022/02/27 06:38:34;;;;;;;9.40;3.20;;;;;;;3.78;57.05;103172.72;4952380;28;114104;-68
2022/02/27 06:41:04;;;;;;;8.77;3.30;;;;;;;3.78;56.99;103167.47;4935971;28;113709;-68
2022/02/27 06:43:33;;;;;;;10.60;2.90;;;;;;;3.78;57.01;103173.59;4952144;28;125204;-68
2022/02/27 06:46:01;;;;;;;7.47;3.17;;;;;;;3.77;56.96;103166.59;4950791;28;124328;-68
2022/02/27 06:48:29;;;;;;;7.97;3.00;;;;;;;3.80;56.98;103171.00;4952508;28;113273;-67
2022/02/27 06:50:56;;;;;;;9.27;3.28;;;;;;;3.80;57.00;103160.53;4951780;28;113096;-68
2022/02/27 06:53:23;;;;;;;7.03;3.30;;;;;;;3.80;56.80;103177.13;4951650;28;124006;-68
2022/02/27 06:55:50;;;;;;;7.78;2.97;;;;;;;3.80;56.73;103177.13;4949550;28;124334;-68
2022/02/27 06:58:19;;;;;;;8.48;3.13;;;;;;;3.82;57.03;103179.78;4951137;28;114309;-68
2022/02/27 07:00:46;;;;;;;10.80;2.70;;;;;;;3.83;57.01;103181.56;4952304;28;112920;-68
2022/02/27 07:03:14;;;;;;;12.32;3.28;;;;;;;3.85;57.11;103185.09;4951697;28;123271;-68
2022/02/27 07:05:41;;;;;;;7.93;3.38;;;;;;;3.86;57.08;103187.75;4952893;28;124080;-68
2022/02/27 07:08:09;;;;;;;10.65;3.20;;;;;;;3.90;57.33;103188.72;4951697;28;114149;-68
2022/02/27 07:10:36;;;;;;;8.25;3.35;;;;;;;3.95;57.50;103186.16;4951762;28;114226;-69
2022/02/27 07:13:04;;;;;;;13.73;3.25;;;;;;;4.00;57.29;103185.41;4935613;28;123234;-69
2022/02/27 07:15:33;;;;;;;8.23;3.15;;;;;;;4.08;57.51;103193.44;4935670;28;122844;-69
2022/02/27 07:18:01;;;;;;;10.48;3.17;;;;;;;4.16;57.76;103185.72;4920157;28;113383;-69
2022/02/27 07:20:30;;;;;;;10.20;3.85;;;;;;;4.25;57.59;103180.66;4949986;28;114373;-69
2022/02/27 07:22:57;;;;;;;7.38;3.03;;;;;;;4.33;57.64;103189.53;4951793;28;124719;-70
2022/02/27 07:25:24;;;;;;;10.23;3.00;;;;;;;4.40;57.58;103175.69;4952219;28;123697;-70
2022/02/27 07:27:51;;;;;;;8.95;3.20;;;;;;;4.48;57.53;103181.97;4952181;28;113362;-70
2022/02/27 07:30:19;;;;;;;5.47;2.63;;;;;;;4.56;57.70;103181.19;4951550;28;112917;-70
2022/02/27 07:32:46;;;;;;;10.48;3.15;;;;;;;4.61;57.51;103179.53;4951590;28;124354;-68
2022/02/27 07:35:13;;;;;;;13.52;3.28;;;;;;;4.68;57.41;103181.44;4951084;28;122878;-68
2022/02/27 07:37:40;;;;;;;9.70;3.38;;;;;;;4.72;57.09;103183.25;4950242;28;114673;-68
2022/02/27 07:40:09;;;;;;;6.15;2.80;;;;;;;4.78;57.24;103178.09;4951047;28;113636;-68
2022/02/27 07:42:37;;;;;;;8.55;3.25;;;;;;;4.82;57.12;103177.31;4934833;28;123559;-68
2022/02/27 07:45:05;;;;;;;7.75;2.88;;;;;;;4.86;57.09;103176.50;4951458;28;122718;-69
2022/02/27 07:47:33;;;;;;;8.48;3.30;;;;;;;4.92;57.48;103174.84;4951481;28;113947;-70
2022/02/27 07:50:00;;;;;;;11.32;2.97;;;;;;;4.96;57.38;103179.28;4951843;28;113750;-70
2022/02/27 07:52:27;;;;;;;7.40;2.83;;;;;;;5.02;57.42;103181.97;4918981;28;123271;-69
2022/02/27 07:54:54;;;;;;;12.30;3.22;;;;;;;5.08;57.35;103176.81;4935308;28;122772;-70
2022/02/27 07:57:22;;;;;;;7.47;2.95;;;;;;;5.13;57.02;103190.91;4950948;28;114158;-70
2022/02/27 07:59:49;;;;;;;10.73;2.90;;;;;;;5.19;57.12;103196.25;4949530;28;115402;-70
2022/02/27 08:02:17;;;;;;;10.40;2.85;;;;;;;5.24;57.39;103185.84;4950094;28;124327;-70
2022/02/27 08:04:44;;;;;;;8.95;3.20;;;;;;;5.30;57.31;103182.41;4951205;28;123388;-69
2022/02/27 08:07:12;;;;;;;7.70;2.80;;;;;;;5.36;57.30;103177.25;4951231;28;114246;-69
2022/02/27 08:09:39;;;;;;;8.23;3.22;;;;;;;5.42;57.25;103182.56;4932342;28;114365;-70
2022/02/27 08:12:07;;;;;;;8.75;3.08;;;;;;;5.49;57.14;103189.69;4950714;28;123035;-70
2022/02/27 08:14:34;;;;;;;8.52;3.25;;;;;;;5.55;56.97;103184.50;4951467;28;123030;-70
2022/02/27 08:17:02;;;;;;;12.45;2.92;;;;;;;5.62;57.29;103181.09;4948734;28;114260;-69
2022/02/27 08:19:30;;;;;;;6.97;2.70;;;;;;;5.69;57.14;103186.44;4935070;28;113326;-70
2022/02/27 08:21:57;;;;;;;11.07;3.00;;;;;;;5.76;56.98;103172.50;4949652;28;123318;-70
2022/02/27 08:24:25;;;;;;;10.95;3.20;;;;;;;5.82;57.26;103181.38;4934795;28;122985;-70
2022/02/27 08:26:52;;;;;;;9.05;3.10;;;;;;;5.91;57.13;103179.72;4934632;28;114101;-70
2022/02/27 08:29:19;;;;;;;7.50;2.88;;;;;;;5.98;56.83;103179.84;4950920;28;112821;-69
2022/02/27 08:31:46;;;;;;;8.82;3.03;;;;;;;6.07;57.01;103183.47;4946500;28;125137;-69
2022/02/27 08:34:13;;;;;;;12.05;3.40;;;;;;;6.14;56.98;103187.91;4950391;28;123988;-69
2022/02/27 08:36:41;;;;;;;8.18;3.00;;;;;;;6.20;56.90;103186.22;4951314;28;113152;-69
2022/02/27 08:39:09;;;;;;;8.52;3.15;;;;;;;6.28;56.68;103188.94;4935246;28;112878;-69
2022/02/27 08:41:38;;;;;;;9.30;3.05;;;;;;;6.35;56.51;103184.66;4933758;28;125524;-70
2022/02/27 08:44:06;;;;;;;8.18;2.97;;;;;;;6.42;56.41;103176.81;4950342;28;124364;-70
2022/02/27 08:46:34;;;;;;;6.72;3.28;;;;;;;6.51;56.41;103180.41;4948771;28;115274;-70
2022/02/27 08:49:02;;;;;;;7.95;3.35;;;;;;;6.60;56.59;103191.03;4934662;28;114485;-69
2022/02/27 08:51:30;;;;;;;9.23;3.10;;;;;;;6.69;56.59;103196.38;4949725;28;123134;-70
2022/02/27 08:53:57;;;;;;;7.75;2.90;;;;;;;6.77;56.52;103184.16;4950124;28;123936;-70
2022/02/27 08:56:24;;;;;;;8.13;3.10;;;;;;;6.88;56.09;103191.28;4947963;28;114372;-70
2022/02/27 08:58:51;;;;;;;7.53;3.35;;;;;;;6.97;55.88;103183.44;4948599;28;114399;-70
2022/02/27 09:01:18;;;;;;;6.50;2.90;;;;;;;7.07;55.87;103182.63;4947923;28;124365;-70
2022/02/27 09:03:46;;;;;;;10.15;3.30;;;;;;;7.17;55.84;103184.44;4934192;28;124118;-70
2022/02/27 09:06:13;;;;;;;7.75;2.97;;;;;;;7.27;55.94;103185.41;4951198;28;114884;-70
2022/02/27 09:08:42;;;;;;;9.15;3.05;;;;;;;7.38;55.59;103188.09;4950401;28;114327;-70
2022/02/27 09:11:10;;;;;;;11.25;3.38;;;;;;;7.50;55.57;103187.31;4950463;28;123741;-70
2022/02/27 09:13:37;;;;;;;6.13;2.95;;;;;;;7.59;55.71;103182.97;4949342;28;124009;-70
2022/02/27 09:16:05;;;;;;;7.88;3.28;;;;;;;7.69;55.09;103188.28;4934555;28;113274;-71
2022/02/27 09:18:33;;;;;;;6.85;3.00;;;;;;;7.78;55.08;103183.06;4949117;28;114019;-70
2022/02/27 09:21:01;;;;;;;7.65;3.38;;;;;;;7.87;55.19;103185.69;4949277;28;124650;-69
2022/02/27 09:23:29;;;;;;;10.15;3.28;;;;;;;7.96;54.93;103192.78;4949077;28;124856;-70
2022/02/27 09:25:56;;;;;;;9.77;3.17;;;;;;;8.04;54.79;103179.63;4934173;28;113536;-69
2022/02/27 09:28:43;;;;;;;7.63;3.10;;;;;;;8.13;54.83;103184.94;4950432;28;112691;-70
2022/02/27 09:31:12;;;;;;;7.72;3.20;;;;;;;8.21;54.75;103177.91;4948896;28;124175;-70
2022/02/27 09:33:39;;;;;;;7.72;3.20;;;;;;;8.29;54.38;103178.81;4950570;28;124379;-70
2022/02/27 09:36:10;;;;;;;8.85;3.40;;;;;;;8.37;54.58;103169.13;4948513;28;115634;-69
2022/02/27 09:38:38;;;;;;;8.75;3.40;;;;;;;8.47;54.57;103174.47;4931318;28;114999;-69
2022/02/27 09:41:06;;;;;;;9.18;2.90;;;;;;;8.55;54.42;103167.44;4947870;28;124986;-69
2022/02/27 09:43:33;;;;;;;7.07;2.80;;;;;;;8.64;54.33;103178.00;4952559;28;123763;-66
2022/02/27 09:46:00;;;;;;;9.07;3.25;;;;;;;8.73;53.94;103185.06;4953116;28;113954;-70
2022/02/27 09:48:27;;;;;;;8.15;3.03;;;;;;;8.82;53.89;103173.63;4950750;28;114035;-69
2022/02/27 09:50:56;;;;;;;7.72;2.97;;;;;;;8.87;53.65;103175.38;4952750;28;123499;-69
2022/02/27 09:53:23;;;;;;;5.70;2.80;;;;;;;8.94;53.65;103173.59;4953637;28;124684;-69
2022/02/27 09:55:51;;;;;;;8.30;3.08;;;;;;;9.01;53.31;103179.78;4953492;28;113776;-69
2022/02/27 09:58:18;;;;;;;8.25;3.03;;;;;;;9.05;53.00;103186.81;4937615;28;113598;-69
2022/02/27 10:00:46;;;;;;;8.38;3.10;;;;;;;9.10;53.00;103178.00;4950763;28;124634;-70
2022/02/27 10:03:16;;;;;;;9.77;3.50;;;;;;;9.17;52.60;103178.84;4952783;28;123633;-68
2022/02/27 10:05:45;;;;;;;7.50;3.20;;;;;;;9.24;53.11;103180.63;4937077;28;113174;-68
2022/02/27 10:08:14;;;;;;;9.50;3.22;;;;;;;9.33;53.04;103175.31;4953485;28;113983;-68
2022/02/27 10:11:02;;;;;;;6.82;3.40;;;;;;;9.45;52.82;103174.38;4951510;28;123867;-69
2022/02/27 10:13:33;;;;;;;7.60;2.88;;;;;;;9.57;52.66;103167.31;4936597;28;123674;-69
2022/02/27 10:16:07;;;;;;;9.18;3.42;;;;;;;9.63;52.38;103157.59;4953338;28;113228;-69
2022/02/27 10:18:39;;;;;;;8.27;3.20;;;;;;;9.74;52.61;103160.22;4950650;28;114221;-69
2022/02/27 10:21:31;;;;;;;7.05;3.28;;;;;;;9.83;52.15;103168.09;4935169;28;124164;-69
2022/02/27 10:24:17;;;;;;;7.07;3.00;;;;;;;9.90;52.16;103161.88;4954055;28;123881;-70
2022/02/27 10:26:47;;;;;;;6.57;2.90;;;;;;;9.99;52.01;103165.38;4952427;28;114284;-69
2022/02/27 10:29:20;;;;;;;6.40;2.78;;;;;;;10.09;51.81;103140.59;4953397;28;114637;-70
2022/02/27 10:31:55;;;;;;;7.03;3.17;;;;;;;10.19;51.61;103146.72;4953757;28;124245;-70
2022/02/27 10:34:35;;;;;;;7.68;3.03;;;;;;;10.27;51.47;103145.78;4936239;28;123860;-70
2022/02/27 10:37:07;;;;;;;6.05;2.70;;;;;;;10.35;51.19;103136.94;4951738;28;114547;-69
2022/02/27 10:39:46;;;;;;;6.68;2.72;;;;;;;10.41;51.18;103136.91;4953016;28;113047;-70
2022/02/27 10:42:27;;;;;;;7.00;2.60;;;;;;;10.45;50.96;103128.03;4953271;28;124066;-69
2022/02/27 10:45:00;;;;;;;5.15;2.75;;;;;;;10.50;51.16;103142.13;4952689;28;123405;-66
2022/02/27 10:47:34;;;;;;;7.05;3.17;;;;;;;10.56;50.72;103131.47;4936377;28;113498;-66
2022/02/27 10:50:14;;;;;;;5.32;2.85;;;;;;;10.63;50.41;103129.66;4950833;28;113831;-66
2022/02/27 10:52:44;;;;;;;5.28;2.40;;;;;;;10.68;50.17;103126.09;4951112;28;123705;-66
2022/02/27 10:55:14;;;;;;;6.55;2.85;;;;;;;10.78;50.21;103131.31;4949445;28;124898;-65
2022/02/27 10:57:46;;;;;;;7.65;2.85;;;;;;;10.83;50.13;103124.16;4935721;28;113495;-65
2022/02/27 11:00:15;;;;;;;5.45;2.80;;;;;;;10.88;49.79;103127.66;4951610;28;114632;-65
2022/02/27 11:02:43;;;;;;;5.32;2.83;;;;;;;10.93;49.82;103120.53;4951450;28;124954;-65
2022/02/27 11:05:14;;;;;;;5.63;2.60;;;;;;;10.99;49.37;103120.47;4951354;28;123949;-65
2022/02/27 11:07:44;;;;;;;5.05;2.80;;;;;;;11.04;49.13;103139.88;4952103;28;113535;-66
2022/02/27 11:10:15;;;;;;;6.57;2.83;;;;;;;11.09;49.15;103130.13;4952017;28;113264;-66
2022/02/27 11:12:42;;;;;;;5.18;2.60;;;;;;;11.13;48.96;103127.41;4951561;28;125480;-67
2022/02/27 11:15:14;;;;;;;7.25;3.08;;;;;;;11.17;48.76;103129.13;4919936;28;122782;-65
2022/02/27 11:17:43;;;;;;;6.75;2.70;;;;;;;11.23;48.77;103123.78;4952577;28;115544;-66
2022/02/27 11:20:14;;;;;;;7.32;2.35;;;;;;;11.30;48.66;103120.13;4933020;28;114878;-65
2022/02/27 11:22:42;;;;;;;6.88;2.50;;;;;;;11.34;48.24;103116.59;4949557;28;123888;-66
2022/02/27 11:25:10;;;;;;;5.78;2.58;;;;;;;11.38;48.10;103122.72;4951718;28;122866;-65